createdAt,value
2022-09-13T00:01:21.311Z,28.50
2022-09-13T00:03:47.659Z,28.20
2022-09-13T00:06:16.910Z,26.77
2022-09-13T00:08:43.371Z,26.67
2022-09-13T00:11:17.428Z,26.48
2022-09-13T00:13:44.126Z,26.98
2022-09-13T00:16:13.090Z,29.15
2022-09-13T00:18:40.209Z,27.88
2022-09-13T00:21:09.437Z,26.20
2022-09-13T00:23:37.091Z,26.58
2022-09-13T00:26:12.471Z,27.83
2022-09-13T00:28:38.951Z,27.20
2022-09-13T00:31:07.335Z,28.67
2022-09-13T00:33:34.292Z,27.25
2022-09-13T00:36:05.609Z,26.77
2022-09-13T00:38:32.265Z,26.80
2022-09-13T00:40:58.587Z,27.05
2022-09-13T00:43:45.351Z,26.92
2022-09-13T00:46:17.071Z,28.50
2022-09-13T00:48:46.990Z,29.80
2022-09-13T00:51:13.658Z,30.67
2022-09-13T00:53:46.070Z,29.38
2022-09-13T00:56:17.886Z,27.67
2022-09-13T00:58:50.555Z,27.45
2022-09-13T01:01:18.862Z,25.90
2022-09-13T01:03:47.253Z,27.60
2022-09-13T01:06:18.635Z,28.20
2022-09-13T01:08:49.451Z,28.00
2022-09-13T01:11:45.433Z,25.35
2022-09-13T01:14:13.238Z,25.02
2022-09-13T01:16:39.686Z,30.27
2022-09-13T01:19:06.100Z,28.35
2022-09-13T01:21:54.907Z,27.10
2022-09-13T01:24:43.985Z,26.63
2022-09-13T01:27:44.629Z,20.85
2022-09-13T01:30:41.682Z,24.02
2022-09-13T01:33:11.059Z,24.00
2022-09-13T01:35:50.058Z,22.80
2022-09-13T01:38:44.933Z,24.40
2022-09-13T01:41:48.445Z,25.05
2022-09-13T01:44:23.631Z,22.73
2022-09-13T01:47:08.048Z,20.70
2022-09-13T01:49:43.336Z,20.95
2022-09-13T01:52:22.271Z,18.52
2022-09-13T01:54:56.019Z,21.25
2022-09-13T01:57:32.437Z,20.60
2022-09-13T02:00:08.613Z,22.17
2022-09-13T02:02:41.378Z,22.08
2022-09-13T02:05:38.795Z,21.40
2022-09-13T02:08:33.001Z,24.48
2022-09-13T02:11:11.868Z,23.57
2022-09-13T02:13:48.525Z,18.52
2022-09-13T02:16:39.462Z,21.75
2022-09-13T02:19:13.497Z,22.95
2022-09-13T02:21:44.562Z,23.27
2022-09-13T02:24:21.143Z,22.05
2022-09-13T02:26:52.756Z,23.23
2022-09-13T02:29:24.421Z,22.60
2022-09-13T02:32:04.169Z,24.38
2022-09-13T02:34:41.963Z,20.75
2022-09-13T02:37:09.679Z,20.23
2022-09-13T02:39:41.620Z,20.90
2022-09-13T02:42:17.506Z,22.48
2022-09-13T02:44:49.790Z,20.67
2022-09-13T02:47:35.429Z,21.40
2022-09-13T02:50:15.322Z,21.40
2022-09-13T02:52:44.976Z,21.33
2022-09-13T02:55:59.749Z,22.17
2022-09-13T02:58:42.454Z,23.90
2022-09-13T03:01:09.331Z,24.95
2022-09-13T03:03:35.838Z,27.83
2022-09-13T03:06:02.479Z,28.40
2022-09-13T03:08:29.352Z,27.23
2022-09-13T03:11:07.991Z,29.63
2022-09-13T03:13:37.545Z,28.90
2022-09-13T03:16:24.957Z,28.25
2022-09-13T03:19:13.179Z,29.48
2022-09-13T03:21:54.675Z,30.13
2022-09-13T03:24:33.721Z,29.38
2022-09-13T03:27:26.417Z,32.58
2022-09-13T03:30:01.611Z,28.38
2022-09-13T03:32:53.105Z,25.83
2022-09-13T03:35:51.782Z,27.65
2022-09-13T03:38:38.520Z,27.45
2022-09-13T03:41:15.087Z,28.05
2022-09-13T03:43:50.628Z,27.33
2022-09-13T03:46:30.353Z,29.75
2022-09-13T03:49:00.102Z,28.77
2022-09-13T03:51:27.851Z,27.27
2022-09-13T03:53:59.487Z,29.98
2022-09-13T03:56:25.809Z,30.20
2022-09-13T03:58:52.356Z,33.85
2022-09-13T04:01:22.571Z,34.85
2022-09-13T04:03:53.308Z,35.33
2022-09-13T04:06:22.300Z,34.58
2022-09-13T04:08:48.915Z,31.75
2022-09-13T04:11:15.336Z,31.90
2022-09-13T04:13:42.032Z,32.70
2022-09-13T04:16:08.663Z,31.83
2022-09-13T04:18:35.733Z,33.05
2022-09-13T04:21:03.170Z,32.22
2022-09-13T04:23:30.190Z,33.40
2022-09-13T04:26:04.992Z,31.05
2022-09-13T04:28:31.376Z,33.75
2022-09-13T04:30:57.960Z,33.70
2022-09-13T04:33:24.989Z,32.90
2022-09-13T04:35:58.351Z,34.78
2022-09-13T04:38:24.748Z,36.42
2022-09-13T04:40:55.604Z,34.55
2022-09-13T04:43:22.908Z,38.88
2022-09-13T04:45:49.405Z,35.35
2022-09-13T04:48:16.323Z,37.20
2022-09-13T04:50:43.077Z,34.03
2022-09-13T04:53:09.418Z,35.50
2022-09-13T04:55:36.776Z,34.40
2022-09-13T04:58:04.173Z,36.47
2022-09-13T05:00:31.586Z,32.35
2022-09-13T05:02:57.911Z,35.13
2022-09-13T05:05:25.810Z,40.38
2022-09-13T05:07:52.645Z,35.15
2022-09-13T05:10:19.725Z,37.83
2022-09-13T05:12:46.520Z,36.58
2022-09-13T05:15:13.407Z,31.10
2022-09-13T05:17:39.734Z,29.80
2022-09-13T05:20:06.805Z,34.28
2022-09-13T05:22:33.191Z,33.30
2022-09-13T05:24:59.597Z,31.05
2022-09-13T05:27:25.908Z,30.02
2022-09-13T05:29:52.263Z,29.13
2022-09-13T05:32:18.578Z,31.83
2022-09-13T05:34:45.656Z,32.13
2022-09-13T05:37:11.977Z,28.55
2022-09-13T05:39:54.338Z,33.50
2022-09-13T05:42:24.588Z,27.67
2022-09-13T05:44:50.951Z,29.58
2022-09-13T05:47:17.258Z,30.27
2022-09-13T05:50:03.437Z,31.48
2022-09-13T05:52:29.863Z,28.63
2022-09-13T05:54:56.179Z,27.63
2022-09-13T05:57:22.678Z,25.88
2022-09-13T05:59:49.175Z,31.40
2022-09-13T06:02:15.568Z,31.38
2022-09-13T06:04:42.099Z,31.60
2022-09-13T06:07:11.897Z,27.20
2022-09-13T06:09:38.335Z,35.35
2022-09-13T06:12:05.178Z,27.90
2022-09-13T06:14:31.550Z,27.13
2022-09-13T06:16:57.858Z,32.17
2022-09-13T06:19:24.217Z,27.67
2022-09-13T06:21:50.526Z,30.17
2022-09-13T06:24:16.921Z,29.92
2022-09-13T06:26:43.251Z,32.15
2022-09-13T06:29:11.064Z,32.35
2022-09-13T06:31:38.995Z,26.95
2022-09-13T06:34:05.473Z,29.70
2022-09-13T06:36:31.799Z,33.28
2022-09-13T06:39:00.390Z,26.40
2022-09-13T06:41:27.211Z,27.40
2022-09-13T06:43:59.055Z,24.90
2022-09-13T06:46:27.311Z,29.88
2022-09-13T06:48:54.337Z,27.15
2022-09-13T06:51:24.942Z,27.40
2022-09-13T06:53:53.223Z,24.70
2022-09-13T06:56:24.857Z,31.40
2022-09-13T06:58:55.195Z,27.98
2022-09-13T07:01:26.725Z,30.48
2022-09-13T07:03:57.504Z,30.00
2022-09-13T07:06:29.124Z,28.05
2022-09-13T07:08:57.359Z,29.75
2022-09-13T07:11:26.761Z,29.15
2022-09-13T07:13:55.615Z,29.17
2022-09-13T07:16:24.723Z,30.35
2022-09-13T07:18:53.342Z,30.08
2022-09-13T07:21:20.782Z,27.35
2022-09-13T07:23:47.231Z,29.35
2022-09-13T07:26:13.911Z,26.58
2022-09-13T07:28:43.194Z,24.67
2022-09-13T07:31:21.114Z,23.10
2022-09-13T07:33:49.006Z,23.15
2022-09-13T07:36:15.541Z,22.27
2022-09-13T07:38:46.570Z,22.10
2022-09-13T07:41:17.334Z,23.77
2022-09-13T07:43:44.548Z,24.40
2022-09-13T07:46:13.710Z,26.05
2022-09-13T07:48:42.385Z,23.63
2022-09-13T07:51:10.534Z,24.67
2022-09-13T07:53:39.018Z,25.42
2022-09-13T07:56:07.019Z,25.45
2022-09-13T07:58:35.223Z,26.58
2022-09-13T08:01:04.860Z,25.38
2022-09-13T08:03:32.661Z,23.88
2022-09-13T08:05:59.153Z,23.95
2022-09-13T08:08:25.665Z,22.77
2022-09-13T08:10:52.279Z,19.95
2022-09-13T08:13:18.868Z,21.98
2022-09-13T08:15:45.682Z,24.65
2022-09-13T08:18:12.230Z,22.10
2022-09-13T08:20:39.577Z,20.67
2022-09-13T08:23:07.805Z,18.63
2022-09-13T08:25:36.169Z,18.45
2022-09-13T08:28:11.004Z,19.23
2022-09-13T08:30:38.089Z,20.92
2022-09-13T08:33:05.108Z,18.88
2022-09-13T08:35:32.996Z,20.45
2022-09-13T08:38:00.301Z,18.60
2022-09-13T08:40:34.587Z,19.75
2022-09-13T08:43:16.065Z,20.13
2022-09-13T08:45:42.698Z,20.92
2022-09-13T08:48:15.986Z,20.00
2022-09-13T08:50:45.211Z,19.65
2022-09-13T08:53:22.801Z,19.85
2022-09-13T08:56:01.550Z,20.00
2022-09-13T08:58:46.329Z,20.38
2022-09-13T09:01:45.449Z,19.95
2022-09-13T09:04:23.075Z,18.58
2022-09-13T09:06:49.774Z,18.67
2022-09-13T09:09:19.819Z,17.20
2022-09-13T09:11:59.849Z,17.77
2022-09-13T09:14:34.435Z,18.40
2022-09-13T09:17:06.783Z,17.55
2022-09-13T09:19:37.383Z,17.90
2022-09-13T09:22:07.142Z,17.17
2022-09-13T09:24:37.299Z,19.50
2022-09-13T09:27:15.321Z,19.00
2022-09-13T09:29:46.448Z,19.27
2022-09-13T09:32:22.051Z,16.98
2022-09-13T09:35:06.875Z,17.48
2022-09-13T09:37:37.172Z,18.75
2022-09-13T09:40:09.507Z,20.05
2022-09-13T09:42:45.935Z,18.65
2022-09-13T09:45:26.694Z,19.65
2022-09-13T09:47:55.629Z,17.92
2022-09-13T09:50:24.561Z,16.90
2022-09-13T09:52:51.560Z,20.88
2022-09-13T09:55:29.045Z,23.58
2022-09-13T09:58:04.363Z,22.27
2022-09-13T10:00:34.277Z,22.17
2022-09-13T10:03:04.571Z,19.13
2022-09-13T10:05:32.412Z,21.42
2022-09-13T10:08:05.310Z,23.50
2022-09-13T10:10:36.670Z,16.10
2022-09-13T10:13:07.381Z,15.68
2022-09-13T10:15:35.678Z,14.60
2022-09-13T10:18:42.376Z,15.70
2022-09-13T10:21:06.968Z,14.77
2022-09-13T10:23:35.493Z,17.35
2022-09-13T10:26:06.486Z,17.52
2022-09-13T10:28:36.367Z,15.68
2022-09-13T10:31:11.957Z,18.75
2022-09-13T10:33:51.996Z,18.92
2022-09-13T10:36:48.053Z,20.58
2022-09-13T10:39:18.230Z,18.75
2022-09-13T10:41:50.042Z,18.00
2022-09-13T10:44:53.636Z,21.38
2022-09-13T10:47:25.139Z,18.80
2022-09-13T10:49:54.872Z,20.73
2022-09-13T10:52:32.312Z,20.45
2022-09-13T10:55:39.051Z,20.70
2022-09-13T10:58:05.524Z,20.83
2022-09-13T11:00:53.935Z,19.73
2022-09-13T11:03:23.348Z,17.55
2022-09-13T11:06:08.046Z,17.02
2022-09-13T11:11:34.621Z,18.33
2022-09-13T11:14:04.291Z,16.08
2022-09-13T11:16:56.188Z,14.77
2022-09-13T11:19:57.337Z,11.07
2022-09-13T11:22:34.064Z,12.55
2022-09-13T11:25:17.338Z,13.60
2022-09-13T11:28:08.196Z,11.40
2022-09-13T11:31:03.713Z,9.55
2022-09-13T11:33:36.453Z,13.32
2022-09-13T11:36:36.987Z,13.68
2022-09-13T11:39:19.671Z,12.55
2022-09-13T11:41:54.771Z,13.18
2022-09-13T11:44:30.210Z,12.70
2022-09-13T11:47:24.477Z,11.15
2022-09-13T11:50:22.194Z,13.73
2022-09-13T11:53:10.484Z,12.70
2022-09-13T11:55:45.536Z,10.73
2022-09-13T11:58:34.022Z,10.52
2022-09-13T12:01:04.778Z,9.43
2022-09-13T12:03:56.125Z,10.07
2022-09-13T12:06:30.375Z,12.20
2022-09-13T12:11:40.079Z,11.38
2022-09-13T12:14:16.909Z,11.43
2022-09-13T12:16:48.543Z,12.52
2022-09-13T12:19:24.017Z,11.98
2022-09-13T12:21:53.528Z,11.60
2022-09-13T12:24:29.576Z,12.85
2022-09-13T12:27:03.853Z,13.38
2022-09-13T12:32:09.690Z,11.02
2022-09-13T12:35:08.566Z,11.77
2022-09-13T12:37:59.214Z,13.63
2022-09-13T12:41:03.263Z,11.98
2022-09-13T12:44:15.688Z,13.27
2022-09-13T12:46:58.061Z,13.82
2022-09-13T12:49:33.385Z,13.63
2022-09-13T12:52:08.786Z,14.05
2022-09-13T12:55:04.937Z,13.80
2022-09-13T12:57:43.330Z,13.10
2022-09-13T13:00:18.875Z,13.57
2022-09-13T13:02:54.433Z,13.65
2022-09-13T13:05:33.012Z,13.38
2022-09-13T13:08:05.942Z,13.93
2022-09-13T13:10:36.251Z,10.48
2022-09-13T13:13:19.456Z,12.32
2022-09-13T13:15:49.878Z,12.32
2022-09-13T13:18:42.950Z,11.90
2022-09-13T13:21:33.429Z,11.43
2022-09-13T13:24:15.369Z,13.77
2022-09-13T13:26:50.470Z,12.25
2022-09-13T13:29:29.918Z,14.80
2022-09-13T13:32:07.890Z,11.75
2022-09-13T13:34:50.187Z,13.15
2022-09-13T13:37:19.453Z,13.00
2022-09-13T13:39:47.859Z,14.07
2022-09-13T13:42:31.547Z,14.70
2022-09-13T13:45:05.375Z,13.70
2022-09-13T13:47:32.641Z,13.70
2022-09-13T13:50:16.135Z,14.13
2022-09-13T13:52:51.541Z,14.45
2022-09-13T13:55:43.413Z,13.90
2022-09-13T13:58:27.077Z,9.88
2022-09-13T14:00:55.397Z,13.73
2022-09-13T14:03:46.124Z,15.10
2022-09-13T14:06:21.605Z,14.43
2022-09-13T14:08:56.787Z,15.25
2022-09-13T14:11:44.599Z,14.82
2022-09-13T14:14:23.599Z,11.70
2022-09-13T14:17:15.386Z,12.90
2022-09-13T14:19:48.457Z,10.98
2022-09-13T14:22:28.568Z,14.23
2022-09-13T14:24:56.932Z,16.17
2022-09-13T14:27:26.785Z,16.23
2022-09-13T14:29:56.230Z,14.23
2022-09-13T14:32:30.176Z,13.05
2022-09-13T14:35:02.131Z,13.55
2022-09-13T14:37:36.323Z,14.65
2022-09-13T14:42:46.015Z,17.08
2022-09-13T14:45:17.263Z,15.80
2022-09-13T14:47:53.189Z,13.73
2022-09-13T14:50:25.536Z,13.63
2022-09-13T14:52:56.796Z,15.73
2022-09-13T14:55:29.996Z,15.18
2022-09-13T14:58:15.915Z,14.25
2022-09-13T15:01:09.965Z,8.50
2022-09-13T15:03:36.990Z,7.88
2022-09-13T15:06:05.521Z,7.88
2022-09-13T15:08:35.010Z,7.25
2022-09-13T15:11:03.960Z,10.52
2022-09-13T15:13:30.694Z,13.32
2022-09-13T15:15:57.780Z,15.32
2022-09-13T15:18:36.579Z,14.75
2022-09-13T15:21:17.871Z,15.52
2022-09-13T15:23:50.633Z,13.10
2022-09-13T15:26:23.290Z,13.10
2022-09-13T15:28:59.138Z,11.70
2022-09-13T15:31:28.581Z,12.38
2022-09-13T15:34:16.867Z,12.25
2022-09-13T15:36:44.727Z,11.90
2022-09-13T15:39:17.363Z,11.00
2022-09-13T15:41:54.372Z,10.70
2022-09-13T15:44:23.180Z,12.57
2022-09-13T15:46:54.004Z,13.07
2022-09-13T15:49:22.986Z,13.55
2022-09-13T15:51:56.226Z,14.65
2022-09-13T15:54:22.875Z,17.38
2022-09-13T15:56:51.804Z,19.52
2022-09-13T15:59:20.617Z,14.80
2022-09-13T16:01:51.920Z,14.50
2022-09-13T16:04:19.417Z,17.30
2022-09-13T16:06:46.535Z,18.67
2022-09-13T16:09:23.335Z,15.05
2022-09-13T16:11:51.142Z,18.42
2022-09-13T16:14:18.963Z,18.83
2022-09-13T16:16:46.081Z,18.08
2022-09-13T16:19:17.585Z,15.73
2022-09-13T16:21:44.415Z,19.77
2022-09-13T16:24:10.937Z,23.63
2022-09-13T16:26:37.998Z,27.30
2022-09-13T16:29:04.427Z,36.45
2022-09-13T16:31:31.416Z,34.22
2022-09-13T16:33:57.780Z,29.42
2022-09-13T16:36:24.351Z,26.88
2022-09-13T16:38:51.381Z,32.72
2022-09-13T16:41:17.753Z,32.03
2022-09-13T16:43:44.080Z,35.00
2022-09-13T16:46:13.452Z,38.47
2022-09-13T16:48:39.865Z,45.40
2022-09-13T16:51:08.366Z,40.50
2022-09-13T16:53:37.063Z,45.85
2022-09-13T16:56:15.369Z,53.72
2022-09-13T16:58:45.014Z,52.28
2022-09-13T17:01:13.314Z,53.08
2022-09-13T17:03:40.483Z,53.65
2022-09-13T17:06:09.360Z,52.17
2022-09-13T17:08:38.073Z,54.63
2022-09-13T17:11:06.975Z,54.92
2022-09-13T17:13:33.515Z,54.08
2022-09-13T17:16:16.909Z,53.65
2022-09-13T17:18:53.632Z,53.28
2022-09-13T17:21:22.240Z,54.92
2022-09-13T17:23:49.048Z,52.40
2022-09-13T17:26:15.972Z,49.03
2022-09-13T17:28:45.274Z,51.72
2022-09-13T17:31:15.044Z,51.58
2022-09-13T17:33:41.651Z,54.08
2022-09-13T17:36:10.369Z,56.70
2022-09-13T17:38:37.775Z,64.25
2022-09-13T17:41:09.490Z,65.32
2022-09-13T17:43:37.687Z,75.13
2022-09-13T17:46:08.709Z,74.80
2022-09-13T17:48:35.129Z,81.20
2022-09-13T17:51:08.549Z,96.88
2022-09-13T17:53:40.387Z,76.40
2022-09-13T17:56:09.695Z,73.50
2022-09-13T17:58:38.887Z,69.05
2022-09-13T18:01:08.755Z,65.07
2022-09-13T18:03:37.782Z,58.92
2022-09-13T18:06:05.934Z,48.15
2022-09-13T18:08:34.238Z,58.53
2022-09-13T18:11:14.218Z,61.80
2022-09-13T18:13:42.669Z,44.67
2022-09-13T18:16:21.257Z,39.10
2022-09-13T18:18:49.555Z,36.03
2022-09-13T18:21:20.239Z,35.35
2022-09-13T18:23:49.431Z,36.97
2022-09-13T18:26:18.561Z,35.05
2022-09-13T18:28:45.801Z,34.42
2022-09-13T18:31:17.964Z,32.53
2022-09-13T18:33:45.664Z,33.03
2022-09-13T18:36:15.173Z,42.08
2022-09-13T18:38:46.882Z,47.65
2022-09-13T18:41:21.979Z,44.20
2022-09-13T18:43:55.160Z,47.67
2022-09-13T18:46:25.294Z,48.78
2022-09-13T18:48:57.205Z,45.70
2022-09-13T18:51:35.770Z,49.25
2022-09-13T18:54:04.819Z,59.08
2022-09-13T18:56:32.766Z,50.75
2022-09-13T18:59:01.300Z,50.75
2022-09-13T19:01:31.368Z,48.47
2022-09-13T19:04:00.741Z,48.45
2022-09-13T19:06:32.848Z,50.83
2022-09-13T19:09:12.474Z,59.38
2022-09-13T19:11:47.451Z,60.20
2022-09-13T19:14:28.252Z,57.80
2022-09-13T19:17:00.573Z,50.72
2022-09-13T19:19:27.214Z,58.03
2022-09-13T19:21:53.575Z,63.88
2022-09-13T19:24:21.106Z,84.75
2022-09-13T19:26:50.841Z,193.20
2022-09-13T19:29:19.859Z,357.00
2022-09-13T19:31:48.568Z,460.38
2022-09-13T19:34:17.342Z,558.08
2022-09-13T19:36:44.228Z,578.13
2022-09-13T19:39:10.794Z,606.38
2022-09-13T19:41:38.392Z,512.67
2022-09-13T19:44:05.510Z,493.17
2022-09-13T19:46:38.505Z,443.38
2022-09-13T19:49:06.808Z,397.90
2022-09-13T19:51:36.958Z,439.92
2022-09-13T19:54:05.815Z,405.15
2022-09-13T19:56:34.951Z,416.00
2022-09-13T19:59:02.261Z,177.40
2022-09-13T20:01:43.934Z,235.32
2022-09-13T20:04:21.807Z,156.95
2022-09-13T20:06:56.397Z,293.20
2022-09-13T20:09:26.441Z,308.20
2022-09-13T20:11:55.109Z,447.85
2022-09-13T20:14:22.309Z,514.13
2022-09-13T20:16:48.828Z,537.17
2022-09-13T20:22:07.690Z,491.13
2022-09-13T20:24:34.103Z,504.60
2022-09-13T20:27:00.467Z,492.02
2022-09-13T20:29:26.937Z,510.40
2022-09-13T20:31:55.310Z,499.25
2022-09-13T20:34:21.700Z,494.08
2022-09-13T20:36:48.808Z,521.13
2022-09-13T20:39:15.597Z,578.97
2022-09-13T20:41:43.250Z,594.72
2022-09-13T20:44:09.673Z,610.40
2022-09-13T20:46:37.566Z,587.20
2022-09-13T20:49:05.313Z,618.58
2022-09-13T20:51:34.639Z,683.97
2022-09-13T20:54:01.370Z,585.00
2022-09-13T20:56:29.068Z,542.53
2022-09-13T20:58:58.068Z,534.20
2022-09-13T21:01:25.645Z,541.95
2022-09-13T21:03:54.030Z,615.38
2022-09-13T21:06:22.932Z,676.67
2022-09-13T21:08:50.373Z,657.40
2022-09-13T21:11:34.675Z,632.20
2022-09-13T21:14:04.998Z,601.22
2022-09-13T21:16:37.486Z,719.92
2022-09-13T21:19:05.124Z,659.15
2022-09-13T21:21:34.570Z,726.15
2022-09-13T21:24:03.595Z,688.53
2022-09-13T21:26:30.631Z,679.13
2022-09-13T21:28:58.473Z,638.83
2022-09-13T21:31:28.756Z,735.10
2022-09-13T21:33:57.661Z,725.50
2022-09-13T21:36:25.218Z,745.03
2022-09-13T21:38:54.181Z,739.45
2022-09-13T21:41:21.120Z,734.85
2022-09-13T21:43:47.451Z,706.95
2022-09-13T21:46:16.870Z,754.05
2022-09-13T21:48:52.381Z,706.88
2022-09-13T21:51:26.977Z,696.58
2022-09-13T21:53:58.505Z,648.67
2022-09-13T21:56:30.945Z,645.10
2022-09-13T21:59:01.977Z,604.30
2022-09-13T22:01:31.415Z,710.65
2022-09-13T22:03:58.814Z,739.20
2022-09-13T22:06:30.166Z,787.70
2022-09-13T22:09:01.361Z,664.13
2022-09-13T22:11:30.634Z,595.95
2022-09-13T22:13:58.442Z,473.10
2022-09-13T22:16:33.340Z,164.55
2022-09-13T22:19:09.538Z,73.95
2022-09-13T22:21:41.993Z,77.28
2022-09-13T22:24:12.592Z,54.67
2022-09-13T22:26:40.533Z,64.97
2022-09-13T22:29:07.694Z,63.70
2022-09-13T22:31:37.225Z,54.00
2022-09-13T22:34:04.963Z,60.28
2022-09-13T22:36:31.597Z,53.22
2022-09-13T22:38:59.009Z,54.58
2022-09-13T22:41:28.275Z,57.47
2022-09-13T22:43:55.425Z,59.78
2022-09-13T22:46:24.730Z,69.35
2022-09-13T22:48:53.164Z,65.28
2022-09-13T22:51:19.832Z,68.15
2022-09-13T22:53:48.443Z,70.70
2022-09-13T22:56:14.718Z,59.78
2022-09-13T22:58:41.743Z,64.47
2022-09-13T23:01:15.169Z,62.95
2022-09-13T23:03:43.465Z,68.37
2022-09-13T23:06:12.044Z,64.47
2022-09-13T23:08:39.449Z,71.40
2022-09-13T23:11:17.616Z,70.82
2022-09-13T23:13:45.701Z,66.05
2022-09-13T23:16:19.097Z,67.43
2022-09-13T23:18:45.598Z,62.10
2022-09-13T23:21:12.239Z,70.35
2022-09-13T23:23:39.711Z,68.05
2022-09-13T23:26:11.336Z,67.68
2022-09-13T23:28:39.244Z,65.57
2022-09-13T23:31:14.621Z,72.80
2022-09-13T23:33:42.873Z,68.03
2022-09-13T23:36:12.014Z,64.47
2022-09-13T23:38:39.712Z,68.03
2022-09-13T23:41:06.943Z,71.30
2022-09-13T23:43:34.175Z,69.10
2022-09-13T23:46:00.628Z,70.38
2022-09-13T23:48:27.981Z,69.75
2022-09-13T23:51:16.657Z,71.25
2022-09-13T23:53:43.580Z,64.57
2022-09-13T23:56:10.887Z,58.67
2022-09-13T23:58:38.417Z,53.78
